This is the latest recevied weather packets stored in our database for station/object OE3UKW. If no packets are shown the sender has not sent any weather packets the latest 1 day(s).
| Time | Temp. | Humidity | Pressure | Rain* | Wind** | Luminosity | Snow |
|---|---|---|---|---|---|---|---|
| 1778099473 | 17.78° C | 51% | 1007 hPa | 0 mm | - | 0 W/m² | - |
| 1778098273 | 18.33° C | 50% | 1006.9 hPa | 0 mm | - | 0 W/m² | - |
| 1778097073 | 18.89° C | 48% | 1006.7 hPa | 0 mm | - | 0 W/m² | - |
| 1778095873 | 18.33° C | 49% | 1006.3 hPa | 0 mm | - | 0 W/m² | - |
| 1778094673 | 18.89° C | 48% | 1006.3 hPa | 0 mm | - | 0 W/m² | - |
| 1778094073 | 19.44° C | 48% | 1006.1 hPa | 0 mm | - | 0 W/m² | - |
| 1778092273 | 20° C | 46% | 1005.6 hPa | 0 mm | - | 0 W/m² | - |
| 1778091073 | 20.56° C | 46% | 1005.6 hPa | 0 mm | - | 5 W/m² | - |
| 1778089873 | 20.56° C | 45% | 1005.3 hPa | 0 mm | - | 28 W/m² | - |
| 1778088073 | 21.67° C | 42% | 1005.2 hPa | 0 mm | - | 49 W/m² | - |
| 1778085072 | 22.78° C | 36% | 1005.5 hPa | 0 mm | - | 93 W/m² | - |
| 1778083872 | 23.33° C | 36% | 1005.7 hPa | 0 mm | - | 134 W/m² | - |
| 1778082672 | 23.89° C | 35% | 1005.8 hPa | 0 mm | - | 230 W/m² | - |
| 1778081472 | 23.89° C | 35% | 1005.9 hPa | 0 mm | - | 192 W/m² | - |
| 1778080872 | 23.89° C | 34% | 1005.9 hPa | 0 mm | - | 196 W/m² | - |
| 1778080272 | 24.44° C | 33% | 1005.9 hPa | 0 mm | - | 198 W/m² | - |
| 1778079672 | 24.44° C | 32% | 1005.9 hPa | 0 mm | - | 236 W/m² | - |
| 1778079072 | 24.44° C | 33% | 1005.9 hPa | 0 mm | - | 262 W/m² | - |
| 1778074872 | 23.89° C | 33% | 1006.8 hPa | 0 mm | - | 333 W/m² | - |
| 1778073072 | 24.44° C | 32% | 1007 hPa | 0 mm | - | 232 W/m² | - |
| 1778071272 | 24.44° C | 31% | 1007.5 hPa | 0 mm | - | 288 W/m² | - |
| 1778069471 | 25° C | 31% | 1007.8 hPa | 0 mm | - | 608 W/m² | - |
| 1778064671 | 24.44° C | 37% | 1008.5 hPa | 0 mm | - | 823 W/m² | - |
| 1778063471 | 24.44° C | 37% | 1008.8 hPa | 0 mm | - | 823 W/m² | - |
| 1778062871 | 24.44° C | 36% | 1009 hPa | 0 mm | - | 819 W/m² | - |
* Rain latest hour (hover to see other rain measurements)
** Current wind speed in m/s (hover to see current wind gust speed)